sensor_id;sensor_type;location;lat;lon;timestamp;P1;durP1;ratioP1;P2;durP2;ratioP2
73898;SDS011;62234;50.892;12.724;2023-03-01T00:01:23;26.80;;;10.98;;
73898;SDS011;62234;50.892;12.724;2023-03-01T00:03:49;23.33;;;10.73;;
73898;SDS011;62234;50.892;12.724;2023-03-01T00:06:15;30.17;;;11.00;;
73898;SDS011;62234;50.892;12.724;2023-03-01T00:08:41;25.50;;;10.80;;
73898;SDS011;62234;50.892;12.724;2023-03-01T00:11:10;25.33;;;10.98;;
73898;SDS011;62234;50.892;12.724;2023-03-01T00:13:37;23.10;;;10.25;;
73898;SDS011;62234;50.892;12.724;2023-03-01T00:16:07;25.08;;;10.57;;
73898;SDS011;62234;50.892;12.724;2023-03-01T00:18:33;25.10;;;9.93;;
73898;SDS011;62234;50.892;12.724;2023-03-01T00:21:00;25.00;;;10.40;;
73898;SDS011;62234;50.892;12.724;2023-03-01T00:23:26;21.20;;;9.27;;
73898;SDS011;62234;50.892;12.724;2023-03-01T00:25:52;25.58;;;10.15;;
73898;SDS011;62234;50.892;12.724;2023-03-01T00:28:19;22.63;;;9.68;;
73898;SDS011;62234;50.892;12.724;2023-03-01T00:30:45;22.48;;;9.30;;
73898;SDS011;62234;50.892;12.724;2023-03-01T00:33:11;20.88;;;8.95;;
73898;SDS011;62234;50.892;12.724;2023-03-01T00:35:37;24.25;;;10.88;;
73898;SDS011;62234;50.892;12.724;2023-03-01T00:38:03;25.05;;;10.63;;
73898;SDS011;62234;50.892;12.724;2023-03-01T00:40:30;27.30;;;10.15;;
73898;SDS011;62234;50.892;12.724;2023-03-01T00:42:56;25.58;;;10.25;;
73898;SDS011;62234;50.892;12.724;2023-03-01T00:45:22;27.55;;;11.60;;
73898;SDS011;62234;50.892;12.724;2023-03-01T00:47:48;31.25;;;11.07;;
73898;SDS011;62234;50.892;12.724;2023-03-01T00:50:14;23.73;;;11.10;;
73898;SDS011;62234;50.892;12.724;2023-03-01T00:52:40;24.30;;;11.57;;
73898;SDS011;62234;50.892;12.724;2023-03-01T00:55:07;26.25;;;10.50;;
73898;SDS011;62234;50.892;12.724;2023-03-01T00:57:33;28.38;;;10.57;;
73898;SDS011;62234;50.892;12.724;2023-03-01T00:59:59;25.00;;;10.40;;
73898;SDS011;62234;50.892;12.724;2023-03-01T01:02:25;28.58;;;11.73;;
73898;SDS011;62234;50.892;12.724;2023-03-01T01:04:52;26.83;;;10.82;;
73898;SDS011;62234;50.892;12.724;2023-03-01T01:07:18;26.42;;;10.95;;
73898;SDS011;62234;50.892;12.724;2023-03-01T01:09:45;29.35;;;11.60;;
73898;SDS011;62234;50.892;12.724;2023-03-01T01:12:11;25.15;;;10.75;;
73898;SDS011;62234;50.892;12.724;2023-03-01T01:14:37;25.35;;;9.75;;
73898;SDS011;62234;50.892;12.724;2023-03-01T01:17:03;22.55;;;9.77;;
73898;SDS011;62234;50.892;12.724;2023-03-01T01:19:29;26.80;;;9.25;;
73898;SDS011;62234;50.892;12.724;2023-03-01T01:21:57;24.55;;;9.10;;
73898;SDS011;62234;50.892;12.724;2023-03-01T01:24:23;23.17;;;8.82;;
73898;SDS011;62234;50.892;12.724;2023-03-01T01:26:49;24.55;;;9.80;;
73898;SDS011;62234;50.892;12.724;2023-03-01T01:29:15;29.08;;;10.88;;
73898;SDS011;62234;50.892;12.724;2023-03-01T01:31:41;26.65;;;10.70;;
73898;SDS011;62234;50.892;12.724;2023-03-01T01:34:09;24.60;;;10.32;;
73898;SDS011;62234;50.892;12.724;2023-03-01T01:36:38;29.90;;;10.32;;
73898;SDS011;62234;50.892;12.724;2023-03-01T01:39:04;26.92;;;10.98;;
73898;SDS011;62234;50.892;12.724;2023-03-01T01:41:30;27.85;;;11.88;;
73898;SDS011;62234;50.892;12.724;2023-03-01T01:44:12;23.83;;;10.60;;
73898;SDS011;62234;50.892;12.724;2023-03-01T01:49:25;28.42;;;10.88;;
73898;SDS011;62234;50.892;12.724;2023-03-01T01:54:38;26.33;;;10.52;;
73898;SDS011;62234;50.892;12.724;2023-03-01T01:57:07;31.55;;;11.52;;
73898;SDS011;62234;50.892;12.724;2023-03-01T01:59:35;27.65;;;12.70;;
73898;SDS011;62234;50.892;12.724;2023-03-01T02:02:02;25.25;;;10.70;;
73898;SDS011;62234;50.892;12.724;2023-03-01T02:04:29;27.13;;;11.20;;
73898;SDS011;62234;50.892;12.724;2023-03-01T02:07:15;20.73;;;9.48;;
73898;SDS011;62234;50.892;12.724;2023-03-01T02:09:43;20.33;;;8.18;;
73898;SDS011;62234;50.892;12.724;2023-03-01T02:12:10;19.90;;;8.85;;
73898;SDS011;62234;50.892;12.724;2023-03-01T02:14:36;22.98;;;9.35;;
73898;SDS011;62234;50.892;12.724;2023-03-01T02:17:02;23.75;;;9.10;;
73898;SDS011;62234;50.892;12.724;2023-03-01T02:22:06;20.85;;;9.68;;
73898;SDS011;62234;50.892;12.724;2023-03-01T02:27:02;23.30;;;9.52;;
73898;SDS011;62234;50.892;12.724;2023-03-01T02:29:28;26.15;;;10.02;;
73898;SDS011;62234;50.892;12.724;2023-03-01T02:31:54;24.45;;;10.75;;
73898;SDS011;62234;50.892;12.724;2023-03-01T02:34:23;21.38;;;8.13;;
73898;SDS011;62234;50.892;12.724;2023-03-01T02:37:03;24.05;;;9.27;;
73898;SDS011;62234;50.892;12.724;2023-03-01T02:39:31;25.85;;;8.98;;
73898;SDS011;62234;50.892;12.724;2023-03-01T02:41:58;23.23;;;9.57;;
73898;SDS011;62234;50.892;12.724;2023-03-01T02:44:25;24.23;;;10.35;;
73898;SDS011;62234;50.892;12.724;2023-03-01T02:46:52;22.70;;;9.73;;
73898;SDS011;62234;50.892;12.724;2023-03-01T02:49:24;22.63;;;9.77;;
73898;SDS011;62234;50.892;12.724;2023-03-01T02:54:25;21.08;;;8.93;;
73898;SDS011;62234;50.892;12.724;2023-03-01T02:56:51;22.90;;;9.25;;
73898;SDS011;62234;50.892;12.724;2023-03-01T02:59:19;20.83;;;9.60;;
73898;SDS011;62234;50.892;12.724;2023-03-01T03:01:46;24.08;;;9.77;;
73898;SDS011;62234;50.892;12.724;2023-03-01T03:04:16;21.92;;;8.55;;
73898;SDS011;62234;50.892;12.724;2023-03-01T03:06:45;24.58;;;8.73;;
73898;SDS011;62234;50.892;12.724;2023-03-01T03:09:11;25.40;;;10.05;;
73898;SDS011;62234;50.892;12.724;2023-03-01T03:11:38;26.58;;;10.45;;
73898;SDS011;62234;50.892;12.724;2023-03-01T03:14:05;21.27;;;8.80;;
73898;SDS011;62234;50.892;12.724;2023-03-01T03:16:37;27.23;;;9.63;;
73898;SDS011;62234;50.892;12.724;2023-03-01T03:19:03;26.75;;;10.80;;
73898;SDS011;62234;50.892;12.724;2023-03-01T03:21:30;22.70;;;9.75;;
73898;SDS011;62234;50.892;12.724;2023-03-01T03:23:57;19.70;;;9.45;;
73898;SDS011;62234;50.892;12.724;2023-03-01T03:26:23;25.38;;;9.55;;
73898;SDS011;62234;50.892;12.724;2023-03-01T03:28:49;23.95;;;9.90;;
73898;SDS011;62234;50.892;12.724;2023-03-01T03:31:15;22.30;;;9.25;;
73898;SDS011;62234;50.892;12.724;2023-03-01T03:33:41;23.33;;;10.00;;
73898;SDS011;62234;50.892;12.724;2023-03-01T03:36:07;25.48;;;10.27;;
73898;SDS011;62234;50.892;12.724;2023-03-01T03:38:38;20.60;;;9.43;;
73898;SDS011;62234;50.892;12.724;2023-03-01T03:41:05;25.95;;;10.57;;
73898;SDS011;62234;50.892;12.724;2023-03-01T03:43:32;30.83;;;10.90;;
73898;SDS011;62234;50.892;12.724;2023-03-01T03:45:58;22.52;;;9.48;;
73898;SDS011;62234;50.892;12.724;2023-03-01T03:48:24;24.95;;;10.20;;
73898;SDS011;62234;50.892;12.724;2023-03-01T03:50:54;21.83;;;9.93;;
73898;SDS011;62234;50.892;12.724;2023-03-01T03:53:21;20.77;;;9.02;;
73898;SDS011;62234;50.892;12.724;2023-03-01T03:55:47;20.67;;;9.93;;
73898;SDS011;62234;50.892;12.724;2023-03-01T03:58:14;25.52;;;10.73;;
73898;SDS011;62234;50.892;12.724;2023-03-01T04:00:42;27.95;;;11.35;;
73898;SDS011;62234;50.892;12.724;2023-03-01T04:03:08;23.65;;;11.27;;
73898;SDS011;62234;50.892;12.724;2023-03-01T04:05:35;24.75;;;10.45;;
73898;SDS011;62234;50.892;12.724;2023-03-01T04:08:01;23.80;;;10.10;;
73898;SDS011;62234;50.892;12.724;2023-03-01T04:10:27;31.33;;;11.30;;
73898;SDS011;62234;50.892;12.724;2023-03-01T04:12:54;25.95;;;10.20;;
73898;SDS011;62234;50.892;12.724;2023-03-01T04:15:23;26.70;;;11.60;;
73898;SDS011;62234;50.892;12.724;2023-03-01T04:17:50;27.52;;;10.05;;
73898;SDS011;62234;50.892;12.724;2023-03-01T04:20:21;23.20;;;9.88;;
73898;SDS011;62234;50.892;12.724;2023-03-01T04:22:49;22.17;;;10.27;;
73898;SDS011;62234;50.892;12.724;2023-03-01T04:25:16;28.45;;;10.35;;
73898;SDS011;62234;50.892;12.724;2023-03-01T04:27:41;25.08;;;11.68;;
73898;SDS011;62234;50.892;12.724;2023-03-01T04:30:08;24.98;;;10.73;;
73898;SDS011;62234;50.892;12.724;2023-03-01T04:32:35;23.02;;;9.80;;
73898;SDS011;62234;50.892;12.724;2023-03-01T04:35:00;27.33;;;9.70;;
73898;SDS011;62234;50.892;12.724;2023-03-01T04:37:27;22.33;;;9.95;;
73898;SDS011;62234;50.892;12.724;2023-03-01T04:39:53;23.52;;;9.32;;
73898;SDS011;62234;50.892;12.724;2023-03-01T04:42:19;27.88;;;9.77;;
73898;SDS011;62234;50.892;12.724;2023-03-01T04:44:45;22.75;;;9.35;;
73898;SDS011;62234;50.892;12.724;2023-03-01T04:47:11;23.83;;;8.63;;
73898;SDS011;62234;50.892;12.724;2023-03-01T04:49:37;22.05;;;9.88;;
73898;SDS011;62234;50.892;12.724;2023-03-01T04:52:03;23.23;;;9.00;;
73898;SDS011;62234;50.892;12.724;2023-03-01T04:54:29;25.75;;;10.45;;
73898;SDS011;62234;50.892;12.724;2023-03-01T04:56:56;26.55;;;10.23;;
73898;SDS011;62234;50.892;12.724;2023-03-01T04:59:22;23.42;;;9.95;;
73898;SDS011;62234;50.892;12.724;2023-03-01T05:01:58;27.48;;;11.25;;
73898;SDS011;62234;50.892;12.724;2023-03-01T05:04:25;29.23;;;10.90;;
73898;SDS011;62234;50.892;12.724;2023-03-01T05:06:51;25.27;;;11.23;;
73898;SDS011;62234;50.892;12.724;2023-03-01T05:09:18;29.58;;;9.85;;
73898;SDS011;62234;50.892;12.724;2023-03-01T05:11:44;27.45;;;9.95;;
73898;SDS011;62234;50.892;12.724;2023-03-01T05:14:10;23.27;;;10.13;;
73898;SDS011;62234;50.892;12.724;2023-03-01T05:16:36;28.45;;;10.50;;
73898;SDS011;62234;50.892;12.724;2023-03-01T05:19:03;25.15;;;10.15;;
73898;SDS011;62234;50.892;12.724;2023-03-01T05:21:47;30.48;;;10.10;;
73898;SDS011;62234;50.892;12.724;2023-03-01T05:24:29;27.95;;;10.35;;
73898;SDS011;62234;50.892;12.724;2023-03-01T05:26:56;27.33;;;10.13;;
73898;SDS011;62234;50.892;12.724;2023-03-01T05:29:22;23.58;;;10.20;;
73898;SDS011;62234;50.892;12.724;2023-03-01T05:31:55;23.38;;;10.07;;
73898;SDS011;62234;50.892;12.724;2023-03-01T05:34:27;26.30;;;10.15;;
73898;SDS011;62234;50.892;12.724;2023-03-01T05:36:53;24.13;;;9.35;;
73898;SDS011;62234;50.892;12.724;2023-03-01T05:39:20;24.23;;;9.90;;
73898;SDS011;62234;50.892;12.724;2023-03-01T05:41:47;21.90;;;9.68;;
73898;SDS011;62234;50.892;12.724;2023-03-01T05:44:13;22.23;;;9.98;;
73898;SDS011;62234;50.892;12.724;2023-03-01T05:46:39;22.58;;;9.65;;
73898;SDS011;62234;50.892;12.724;2023-03-01T05:49:05;17.88;;;8.50;;
73898;SDS011;62234;50.892;12.724;2023-03-01T05:51:32;24.55;;;10.18;;
73898;SDS011;62234;50.892;12.724;2023-03-01T05:53:58;23.80;;;9.98;;
73898;SDS011;62234;50.892;12.724;2023-03-01T05:56:24;22.98;;;9.50;;
73898;SDS011;62234;50.892;12.724;2023-03-01T05:58:50;18.38;;;8.10;;
73898;SDS011;62234;50.892;12.724;2023-03-01T06:01:16;21.15;;;9.40;;
73898;SDS011;62234;50.892;12.724;2023-03-01T06:03:42;20.10;;;8.00;;
73898;SDS011;62234;50.892;12.724;2023-03-01T06:06:08;25.80;;;9.32;;
73898;SDS011;62234;50.892;12.724;2023-03-01T06:08:34;23.05;;;9.13;;
73898;SDS011;62234;50.892;12.724;2023-03-01T06:11:00;26.23;;;10.07;;
73898;SDS011;62234;50.892;12.724;2023-03-01T06:13:26;24.52;;;10.32;;
73898;SDS011;62234;50.892;12.724;2023-03-01T06:15:52;26.00;;;10.48;;
73898;SDS011;62234;50.892;12.724;2023-03-01T06:18:18;31.55;;;10.63;;
73898;SDS011;62234;50.892;12.724;2023-03-01T06:20:44;27.98;;;10.23;;
73898;SDS011;62234;50.892;12.724;2023-03-01T06:23:10;21.17;;;8.90;;
73898;SDS011;62234;50.892;12.724;2023-03-01T06:25:36;20.23;;;8.95;;
73898;SDS011;62234;50.892;12.724;2023-03-01T06:28:02;23.33;;;8.50;;
73898;SDS011;62234;50.892;12.724;2023-03-01T06:30:29;24.75;;;10.57;;
73898;SDS011;62234;50.892;12.724;2023-03-01T06:32:56;20.52;;;9.10;;
73898;SDS011;62234;50.892;12.724;2023-03-01T06:35:25;22.00;;;9.90;;
73898;SDS011;62234;50.892;12.724;2023-03-01T06:37:54;23.00;;;9.90;;
73898;SDS011;62234;50.892;12.724;2023-03-01T06:40:20;23.33;;;9.90;;
73898;SDS011;62234;50.892;12.724;2023-03-01T06:42:50;20.88;;;10.00;;
73898;SDS011;62234;50.892;12.724;2023-03-01T06:45:17;20.40;;;10.07;;
73898;SDS011;62234;50.892;12.724;2023-03-01T06:47:43;19.23;;;9.10;;
73898;SDS011;62234;50.892;12.724;2023-03-01T06:50:09;21.40;;;9.43;;
73898;SDS011;62234;50.892;12.724;2023-03-01T06:52:35;19.38;;;8.35;;
73898;SDS011;62234;50.892;12.724;2023-03-01T06:55:01;24.23;;;10.18;;
73898;SDS011;62234;50.892;12.724;2023-03-01T06:57:27;20.08;;;8.60;;
73898;SDS011;62234;50.892;12.724;2023-03-01T06:59:53;19.10;;;9.40;;
73898;SDS011;62234;50.892;12.724;2023-03-01T07:02:19;20.45;;;8.25;;
73898;SDS011;62234;50.892;12.724;2023-03-01T07:04:45;20.52;;;9.15;;
73898;SDS011;62234;50.892;12.724;2023-03-01T07:07:11;16.73;;;8.55;;
73898;SDS011;62234;50.892;12.724;2023-03-01T07:09:37;24.00;;;8.75;;
73898;SDS011;62234;50.892;12.724;2023-03-01T07:12:03;18.35;;;8.07;;
73898;SDS011;62234;50.892;12.724;2023-03-01T07:14:29;19.15;;;7.45;;
73898;SDS011;62234;50.892;12.724;2023-03-01T07:16:55;21.75;;;9.30;;
73898;SDS011;62234;50.892;12.724;2023-03-01T07:19:21;21.48;;;9.13;;
73898;SDS011;62234;50.892;12.724;2023-03-01T07:21:47;19.50;;;8.48;;
73898;SDS011;62234;50.892;12.724;2023-03-01T07:24:14;17.98;;;8.70;;
73898;SDS011;62234;50.892;12.724;2023-03-01T07:26:40;18.90;;;8.48;;
73898;SDS011;62234;50.892;12.724;2023-03-01T07:29:06;17.38;;;8.38;;
73898;SDS011;62234;50.892;12.724;2023-03-01T07:31:33;19.25;;;7.55;;
73898;SDS011;62234;50.892;12.724;2023-03-01T07:33:59;26.38;;;10.23;;
73898;SDS011;62234;50.892;12.724;2023-03-01T07:36:25;24.10;;;9.95;;
73898;SDS011;62234;50.892;12.724;2023-03-01T07:38:51;20.83;;;9.07;;
73898;SDS011;62234;50.892;12.724;2023-03-01T07:41:17;20.48;;;8.95;;
73898;SDS011;62234;50.892;12.724;2023-03-01T07:43:43;19.80;;;8.45;;
73898;SDS011;62234;50.892;12.724;2023-03-01T07:46:09;24.35;;;9.68;;
73898;SDS011;62234;50.892;12.724;2023-03-01T07:51:32;24.20;;;9.07;;
73898;SDS011;62234;50.892;12.724;2023-03-01T07:53:58;21.98;;;9.35;;
73898;SDS011;62234;50.892;12.724;2023-03-01T07:56:23;24.80;;;10.27;;
73898;SDS011;62234;50.892;12.724;2023-03-01T07:58:49;20.02;;;8.32;;
73898;SDS011;62234;50.892;12.724;2023-03-01T08:01:17;22.35;;;9.35;;
73898;SDS011;62234;50.892;12.724;2023-03-01T08:03:43;23.25;;;10.27;;
73898;SDS011;62234;50.892;12.724;2023-03-01T08:06:10;21.60;;;9.07;;
73898;SDS011;62234;50.892;12.724;2023-03-01T08:08:36;22.20;;;9.57;;
73898;SDS011;62234;50.892;12.724;2023-03-01T08:11:03;18.17;;;9.13;;
73898;SDS011;62234;50.892;12.724;2023-03-01T08:13:30;25.67;;;9.95;;
73898;SDS011;62234;50.892;12.724;2023-03-01T08:16:10;24.67;;;9.45;;
73898;SDS011;62234;50.892;12.724;2023-03-01T08:18:36;26.50;;;9.70;;
73898;SDS011;62234;50.892;12.724;2023-03-01T08:21:06;23.95;;;9.70;;
73898;SDS011;62234;50.892;12.724;2023-03-01T08:23:32;19.73;;;9.18;;
73898;SDS011;62234;50.892;12.724;2023-03-01T08:26:12;20.05;;;8.82;;
73898;SDS011;62234;50.892;12.724;2023-03-01T08:28:38;17.45;;;8.43;;
73898;SDS011;62234;50.892;12.724;2023-03-01T08:33:39;19.88;;;9.48;;
73898;SDS011;62234;50.892;12.724;2023-03-01T08:36:05;20.70;;;9.10;;
73898;SDS011;62234;50.892;12.724;2023-03-01T08:38:32;22.33;;;8.93;;
73898;SDS011;62234;50.892;12.724;2023-03-01T08:40:59;18.77;;;9.85;;
73898;SDS011;62234;50.892;12.724;2023-03-01T08:43:25;23.13;;;10.15;;
73898;SDS011;62234;50.892;12.724;2023-03-01T08:45:54;24.48;;;10.13;;
73898;SDS011;62234;50.892;12.724;2023-03-01T08:48:20;20.23;;;9.02;;
73898;SDS011;62234;50.892;12.724;2023-03-01T08:50:46;24.02;;;9.13;;
73898;SDS011;62234;50.892;12.724;2023-03-01T08:53:12;24.67;;;9.15;;
73898;SDS011;62234;50.892;12.724;2023-03-01T08:55:38;22.60;;;8.80;;
73898;SDS011;62234;50.892;12.724;2023-03-01T08:58:04;19.92;;;9.02;;
73898;SDS011;62234;50.892;12.724;2023-03-01T09:00:30;20.10;;;9.77;;
73898;SDS011;62234;50.892;12.724;2023-03-01T09:02:59;22.42;;;8.70;;
73898;SDS011;62234;50.892;12.724;2023-03-01T09:05:25;18.80;;;8.57;;
73898;SDS011;62234;50.892;12.724;2023-03-01T09:07:51;22.90;;;9.23;;
73898;SDS011;62234;50.892;12.724;2023-03-01T09:10:17;18.17;;;7.80;;
73898;SDS011;62234;50.892;12.724;2023-03-01T09:12:44;19.90;;;9.05;;
73898;SDS011;62234;50.892;12.724;2023-03-01T09:15:10;16.05;;;7.07;;
73898;SDS011;62234;50.892;12.724;2023-03-01T09:17:36;21.33;;;8.77;;
73898;SDS011;62234;50.892;12.724;2023-03-01T09:20:02;18.65;;;7.03;;
73898;SDS011;62234;50.892;12.724;2023-03-01T09:22:30;20.85;;;9.77;;
73898;SDS011;62234;50.892;12.724;2023-03-01T09:24:56;19.98;;;8.35;;
73898;SDS011;62234;50.892;12.724;2023-03-01T09:27:24;20.73;;;8.75;;
73898;SDS011;62234;50.892;12.724;2023-03-01T09:29:50;18.77;;;8.88;;
73898;SDS011;62234;50.892;12.724;2023-03-01T09:32:16;20.42;;;9.98;;
73898;SDS011;62234;50.892;12.724;2023-03-01T09:34:41;19.30;;;8.98;;
73898;SDS011;62234;50.892;12.724;2023-03-01T09:37:46;19.45;;;8.70;;
73898;SDS011;62234;50.892;12.724;2023-03-01T09:40:15;24.60;;;9.18;;
73898;SDS011;62234;50.892;12.724;2023-03-01T09:42:52;21.65;;;9.75;;
73898;SDS011;62234;50.892;12.724;2023-03-01T09:45:33;21.60;;;9.50;;
73898;SDS011;62234;50.892;12.724;2023-03-01T09:47:59;23.58;;;8.88;;
73898;SDS011;62234;50.892;12.724;2023-03-01T09:50:26;18.33;;;7.88;;
73898;SDS011;62234;50.892;12.724;2023-03-01T09:55:43;23.50;;;9.27;;
73898;SDS011;62234;50.892;12.724;2023-03-01T09:58:13;17.27;;;8.15;;
73898;SDS011;62234;50.892;12.724;2023-03-01T10:00:48;23.92;;;9.30;;
73898;SDS011;62234;50.892;12.724;2023-03-01T10:08:40;20.50;;;8.77;;
73898;SDS011;62234;50.892;12.724;2023-03-01T10:11:21;22.67;;;9.45;;
73898;SDS011;62234;50.892;12.724;2023-03-01T10:13:59;17.27;;;8.25;;
73898;SDS011;62234;50.892;12.724;2023-03-01T10:19:14;18.75;;;8.32;;
73898;SDS011;62234;50.892;12.724;2023-03-01T10:21:42;20.88;;;10.35;;
73898;SDS011;62234;50.892;12.724;2023-03-01T10:24:11;21.45;;;9.40;;
73898;SDS011;62234;50.892;12.724;2023-03-01T10:29:11;17.67;;;7.95;;
73898;SDS011;62234;50.892;12.724;2023-03-01T10:31:44;24.55;;;9.93;;
73898;SDS011;62234;50.892;12.724;2023-03-01T10:36:40;17.25;;;8.75;;
73898;SDS011;62234;50.892;12.724;2023-03-01T10:39:16;20.15;;;9.95;;
73898;SDS011;62234;50.892;12.724;2023-03-01T10:42:04;22.95;;;9.63;;
73898;SDS011;62234;50.892;12.724;2023-03-01T10:44:36;20.10;;;8.80;;
73898;SDS011;62234;50.892;12.724;2023-03-01T10:47:02;16.80;;;8.82;;
73898;SDS011;62234;50.892;12.724;2023-03-01T10:49:29;20.33;;;8.65;;
73898;SDS011;62234;50.892;12.724;2023-03-01T10:51:55;22.80;;;9.45;;
73898;SDS011;62234;50.892;12.724;2023-03-01T10:54:25;19.42;;;8.35;;
73898;SDS011;62234;50.892;12.724;2023-03-01T10:56:56;15.70;;;8.85;;
73898;SDS011;62234;50.892;12.724;2023-03-01T10:59:27;20.17;;;9.48;;
73898;SDS011;62234;50.892;12.724;2023-03-01T11:02:08;13.48;;;6.90;;
73898;SDS011;62234;50.892;12.724;2023-03-01T11:04:39;18.05;;;8.77;;
73898;SDS011;62234;50.892;12.724;2023-03-01T11:07:07;24.17;;;9.75;;
73898;SDS011;62234;50.892;12.724;2023-03-01T11:09:33;17.88;;;9.10;;
73898;SDS011;62234;50.892;12.724;2023-03-01T11:12:03;17.77;;;8.23;;
73898;SDS011;62234;50.892;12.724;2023-03-01T11:14:36;22.13;;;8.50;;
73898;SDS011;62234;50.892;12.724;2023-03-01T11:17:04;21.70;;;9.65;;
73898;SDS011;62234;50.892;12.724;2023-03-01T11:19:30;22.15;;;9.52;;
73898;SDS011;62234;50.892;12.724;2023-03-01T11:22:01;18.83;;;8.23;;
73898;SDS011;62234;50.892;12.724;2023-03-01T11:24:34;23.35;;;10.43;;
73898;SDS011;62234;50.892;12.724;2023-03-01T11:27:03;19.23;;;9.32;;
73898;SDS011;62234;50.892;12.724;2023-03-01T11:29:43;18.48;;;8.82;;
73898;SDS011;62234;50.892;12.724;2023-03-01T11:32:11;26.92;;;10.10;;
73898;SDS011;62234;50.892;12.724;2023-03-01T11:34:49;14.73;;;7.10;;
73898;SDS011;62234;50.892;12.724;2023-03-01T11:37:59;22.85;;;9.35;;
73898;SDS011;62234;50.892;12.724;2023-03-01T11:40:11;19.67;;;8.75;;
73898;SDS011;62234;50.892;12.724;2023-03-01T11:42:42;19.67;;;8.20;;
73898;SDS011;62234;50.892;12.724;2023-03-01T11:45:12;20.88;;;9.48;;
73898;SDS011;62234;50.892;12.724;2023-03-01T11:47:45;22.38;;;9.18;;
73898;SDS011;62234;50.892;12.724;2023-03-01T11:50:26;21.50;;;9.45;;
73898;SDS011;62234;50.892;12.724;2023-03-01T11:52:57;18.08;;;9.35;;
73898;SDS011;62234;50.892;12.724;2023-03-01T12:09:05;21.55;;;9.10;;
73898;SDS011;62234;50.892;12.724;2023-03-01T12:11:37;19.45;;;9.60;;
73898;SDS011;62234;50.892;12.724;2023-03-01T12:17:23;22.05;;;9.60;;
73898;SDS011;62234;50.892;12.724;2023-03-01T12:19:42;22.23;;;9.57;;
73898;SDS011;62234;50.892;12.724;2023-03-01T12:25:29;23.35;;;10.63;;
73898;SDS011;62234;50.892;12.724;2023-03-01T12:27:41;23.63;;;11.32;;
73898;SDS011;62234;50.892;12.724;2023-03-01T12:33:10;22.45;;;9.07;;
73898;SDS011;62234;50.892;12.724;2023-03-01T12:41:11;20.38;;;9.02;;
73898;SDS011;62234;50.892;12.724;2023-03-01T12:43:46;23.58;;;10.05;;
73898;SDS011;62234;50.892;12.724;2023-03-01T12:46:38;21.90;;;9.00;;
73898;SDS011;62234;50.892;12.724;2023-03-01T12:49:18;21.13;;;9.35;;
73898;SDS011;62234;50.892;12.724;2023-03-01T12:51:56;17.80;;;9.35;;
73898;SDS011;62234;50.892;12.724;2023-03-01T12:54:29;20.67;;;9.52;;
73898;SDS011;62234;50.892;12.724;2023-03-01T12:59:34;19.10;;;8.63;;
73898;SDS011;62234;50.892;12.724;2023-03-01T13:02:07;20.33;;;8.55;;
73898;SDS011;62234;50.892;12.724;2023-03-01T13:04:51;19.23;;;8.48;;
73898;SDS011;62234;50.892;12.724;2023-03-01T13:07:24;20.73;;;9.05;;
73898;SDS011;62234;50.892;12.724;2023-03-01T13:09:54;17.25;;;8.20;;
73898;SDS011;62234;50.892;12.724;2023-03-01T13:12:42;23.13;;;11.25;;
73898;SDS011;62234;50.892;12.724;2023-03-01T13:20:51;26.15;;;11.05;;
73898;SDS011;62234;50.892;12.724;2023-03-01T13:26:03;19.77;;;10.02;;
73898;SDS011;62234;50.892;12.724;2023-03-01T13:33:44;23.02;;;9.55;;
73898;SDS011;62234;50.892;12.724;2023-03-01T13:36:11;19.45;;;9.05;;
73898;SDS011;62234;50.892;12.724;2023-03-01T13:41:06;23.08;;;10.32;;
73898;SDS011;62234;50.892;12.724;2023-03-01T13:43:35;23.08;;;10.00;;
73898;SDS011;62234;50.892;12.724;2023-03-01T13:46:02;16.52;;;7.93;;
73898;SDS011;62234;50.892;12.724;2023-03-01T13:48:33;22.50;;;10.20;;
73898;SDS011;62234;50.892;12.724;2023-03-01T13:51:00;19.33;;;9.98;;
73898;SDS011;62234;50.892;12.724;2023-03-01T13:53:29;22.60;;;10.23;;
73898;SDS011;62234;50.892;12.724;2023-03-01T13:56:01;22.35;;;9.43;;
73898;SDS011;62234;50.892;12.724;2023-03-01T14:01:01;17.55;;;8.70;;
73898;SDS011;62234;50.892;12.724;2023-03-01T14:03:27;15.70;;;8.38;;
73898;SDS011;62234;50.892;12.724;2023-03-01T14:05:58;18.48;;;9.18;;
73898;SDS011;62234;50.892;12.724;2023-03-01T14:08:26;20.55;;;9.90;;
73898;SDS011;62234;50.892;12.724;2023-03-01T14:13:54;22.27;;;9.25;;
73898;SDS011;62234;50.892;12.724;2023-03-01T14:21:33;21.13;;;10.10;;
73898;SDS011;62234;50.892;12.724;2023-03-01T14:24:01;23.30;;;8.52;;
73898;SDS011;62234;50.892;12.724;2023-03-01T14:26:27;18.98;;;8.82;;
73898;SDS011;62234;50.892;12.724;2023-03-01T14:28:53;16.88;;;7.57;;
73898;SDS011;62234;50.892;12.724;2023-03-01T14:31:37;17.75;;;8.40;;
73898;SDS011;62234;50.892;12.724;2023-03-01T14:34:03;19.88;;;9.43;;
73898;SDS011;62234;50.892;12.724;2023-03-01T14:36:30;15.48;;;8.43;;
73898;SDS011;62234;50.892;12.724;2023-03-01T14:38:56;19.80;;;8.40;;
73898;SDS011;62234;50.892;12.724;2023-03-01T14:41:29;23.55;;;9.35;;
73898;SDS011;62234;50.892;12.724;2023-03-01T14:43:57;20.33;;;9.18;;
73898;SDS011;62234;50.892;12.724;2023-03-01T14:46:34;19.05;;;8.50;;
73898;SDS011;62234;50.892;12.724;2023-03-01T14:49:20;19.40;;;8.25;;
73898;SDS011;62234;50.892;12.724;2023-03-01T14:51:58;20.38;;;9.07;;
73898;SDS011;62234;50.892;12.724;2023-03-01T14:54:41;16.95;;;8.50;;
73898;SDS011;62234;50.892;12.724;2023-03-01T15:00:01;20.65;;;8.65;;
73898;SDS011;62234;50.892;12.724;2023-03-01T15:02:30;15.98;;;7.65;;
73898;SDS011;62234;50.892;12.724;2023-03-01T15:05:01;17.88;;;8.57;;
73898;SDS011;62234;50.892;12.724;2023-03-01T15:07:33;17.30;;;7.95;;
73898;SDS011;62234;50.892;12.724;2023-03-01T15:09:59;15.40;;;7.53;;
73898;SDS011;62234;50.892;12.724;2023-03-01T15:14:55;17.42;;;8.73;;
73898;SDS011;62234;50.892;12.724;2023-03-01T15:17:34;14.95;;;6.55;;
73898;SDS011;62234;50.892;12.724;2023-03-01T15:20:02;16.02;;;7.18;;
73898;SDS011;62234;50.892;12.724;2023-03-01T15:22:29;12.27;;;5.85;;
73898;SDS011;62234;50.892;12.724;2023-03-01T15:24:55;16.33;;;8.07;;
73898;SDS011;62234;50.892;12.724;2023-03-01T15:27:22;15.25;;;6.72;;
73898;SDS011;62234;50.892;12.724;2023-03-01T15:29:50;15.98;;;5.45;;
73898;SDS011;62234;50.892;12.724;2023-03-01T15:38:02;13.55;;;5.93;;
73898;SDS011;62234;50.892;12.724;2023-03-01T15:40:29;12.88;;;5.32;;
73898;SDS011;62234;50.892;12.724;2023-03-01T15:42:58;11.13;;;5.90;;
73898;SDS011;62234;50.892;12.724;2023-03-01T15:45:25;13.88;;;5.90;;
73898;SDS011;62234;50.892;12.724;2023-03-01T15:47:56;10.93;;;5.47;;
73898;SDS011;62234;50.892;12.724;2023-03-01T15:50:27;14.30;;;7.03;;
73898;SDS011;62234;50.892;12.724;2023-03-01T15:52:54;13.48;;;6.35;;
73898;SDS011;62234;50.892;12.724;2023-03-01T15:55:21;12.50;;;5.78;;
73898;SDS011;62234;50.892;12.724;2023-03-01T15:57:48;7.43;;;4.38;;
73898;SDS011;62234;50.892;12.724;2023-03-01T16:00:15;14.27;;;6.00;;
73898;SDS011;62234;50.892;12.724;2023-03-01T16:02:42;12.52;;;5.97;;
73898;SDS011;62234;50.892;12.724;2023-03-01T16:05:14;10.75;;;4.65;;
73898;SDS011;62234;50.892;12.724;2023-03-01T16:07:42;12.05;;;5.20;;
73898;SDS011;62234;50.892;12.724;2023-03-01T16:10:08;16.23;;;5.78;;